Terminal Aerodrome Forecast
Issued by NWS

Home | Current Version | Previous Version | Text Only | Print | Product List | Glossary On
Versions: 1 2 3 4 5 6 7 8 9 10 11 12 13 14
000
FTUS43 KIWX 041417 AAA
TAFSBN
TAF AMD
KSBN 041417Z 0414/0512 00000KT P6SM OVC007
     FM041530 25005KT P6SM SCT007 BKN015
     FM041700 26006KT P6SM BKN020
     FM041830 30006KT P6SM SCT020 BKN045
      TEMPO 0420/0424 P6SM -TSRA BKN045CB
     FM051000 00000KT 4SM BR SCT007 BKN040=

USA.gov is the U.S. government's official web portal to all federal, state and local government web resources and services.